^^
Station Historical Data
Daily Summary for August 6, 2017 Units:  Both    English   Metric
« Previous Day
Next Day »
Daily Weekly Monthly Yearly Custom
  High: Low: Average:
Temperature: 75.9 °F /  24.4 °C 43.3 °F /  6.3 °C 59 °F /  15 °C
Dew Point: 28.2 °F /  -2.1 °C 17.2 °F /  -8.2 °C 20.9 °F /  -6.2 °C
Humidity: 40% 11% 25%
Wind Speed: 8.9mph /  14.3km/h - 0.6mph /  1km/h
Wind Gust: 10.0mph /  16.1km/h - -
Wind- - South
Pressure: 30.41 in /  1029.7 hPa 30.28 in /  1025.3 hPa -
Precipitation: 0.00 in /  0 mm    
Historical Graphs
 
 
Tabular Data for August 6, 2017
Time Temperature Dew Point Pressure Wind Wind Speed Wind Gust Humidity Rainfall Rate (Hourly) solar Conditions
00:11 48.4 °F /  9.1 °C 19.9 °F /  -6.7 °C 30.33in /  1027hPa Calm     32% 0.00in /  0mm 0.0 W/m2
00:17 48.0 °F /  8.9 °C 19.6 °F /  -6.9 °C 30.33in /  1027hPa Calm     32% 0.00in /  0mm 0.0 W/m2
00:23 47.7 °F /  8.7 °C 19.9 °F /  -6.7 °C 30.33in /  1027hPa Calm     33% 0.00in /  0mm 0.0 W/m2
00:30 47.3 °F /  8.5 °C 19.6 °F /  -6.9 °C 30.33in /  1027hPa Calm     33% 0.00in /  0mm 0.0 W/m2
00:36 47.1 °F /  8.4 °C 20.1 °F /  -6.6 °C 30.33in /  1027hPa Calm     34% 0.00in /  0mm 0.0 W/m2
00:48 46.8 °F /  8.2 °C 19.9 °F /  -6.7 °C 30.33in /  1027hPa Calm     34% 0.00in /  0mm 0.0 W/m2
00:54 46.6 °F /  8.1 °C 19.8 °F /  -6.8 °C 30.33in /  1027hPa Calm     34% 0.00in /  0mm 0.0 W/m2
01:00 46.4 °F /  8 °C 19.6 °F /  -6.9 °C 30.33in /  1027hPa Calm     34% 0.00in /  0mm 0.0 W/m2
01:06 46.0 °F /  7.8 °C 19.2 °F /  -7.1 °C 30.34in /  1027.3hPa Calm     34% 0.00in /  0mm 0.0 W/m2
01:13 45.9 °F /  7.7 °C 19.0 °F /  -7.2 °C 30.33in /  1027hPa Calm     34% 0.00in /  0mm 0.0 W/m2
01:25 45.3 °F /  7.4 °C 19.2 °F /  -7.1 °C 30.33in /  1027hPa Calm     35% 0.00in /  0mm 0.0 W/m2
01:31 45.0 °F /  7.2 °C 18.9 °F /  -7.3 °C 30.33in /  1027hPa Calm     35% 0.00in /  0mm 0.0 W/m2
01:37 44.8 °F /  7.1 °C 19.4 °F /  -7 °C 30.33in /  1027hPa Calm     36% 0.00in /  0mm 0.0 W/m2
01:43 44.8 °F /  7.1 °C 19.4 °F /  -7 °C 30.33in /  1027hPa Calm     36% 0.00in /  0mm 0.0 W/m2
01:49 44.6 °F /  7 °C 19.2 °F /  -7.1 °C 30.33in /  1027hPa Calm     36% 0.00in /  0mm 0.0 W/m2
01:56 44.4 °F /  6.9 °C 19.8 °F /  -6.8 °C 30.33in /  1027hPa Calm     37% 0.00in /  0mm 0.0 W/m2
02:02 44.4 °F /  6.9 °C 19.8 °F /  -6.8 °C 30.33in /  1027hPa Calm     37% 0.00in /  0mm 0.0 W/m2
02:08 44.2 °F /  6.8 °C 19.0 °F /  -7.2 °C 30.33in /  1027hPa Calm     36% 0.00in /  0mm 0.0 W/m2
02:14 44.2 °F /  6.8 °C 19.0 °F /  -7.2 °C 30.33in /  1027hPa Calm     36% 0.00in /  0mm 0.0 W/m2
02:20 44.1 °F /  6.7 °C 19.4 °F /  -7 °C 30.32in /  1026.6hPa Calm     37% 0.00in /  0mm 0.0 W/m2
02:26 43.9 °F /  6.6 °C 19.9 °F /  -6.7 °C 30.33in /  1027hPa Calm     38% 0.00in /  0mm 0.0 W/m2
02:33 43.7 °F /  6.5 °C 19.8 °F /  -6.8 °C 30.33in /  1027hPa Calm     38% 0.00in /  0mm 0.0 W/m2
02:39 43.5 °F /  6.4 °C 19.6 °F /  -6.9 °C 30.32in /  1026.6hPa Calm     38% 0.00in /  0mm 0.0 W/m2
02:45 43.5 °F /  6.4 °C 19.6 °F /  -6.9 °C 30.32in /  1026.6hPa Calm     38% 0.00in /  0mm 0.0 W/m2
02:51 43.3 °F /  6.3 °C 20.1 °F /  -6.6 °C 30.32in /  1026.6hPa Calm     39% 0.00in /  0mm 0.0 W/m2
02:57 43.3 °F /  6.3 °C 20.7 °F /  -6.3 °C 30.32in /  1026.6hPa Calm     40% 0.00in /  0mm 0.0 W/m2
03:03 43.3 °F /  6.3 °C 19.4 °F /  -7 °C 30.32in /  1026.6hPa Calm     38% 0.00in /  0mm 0.0 W/m2
03:09 43.5 °F /  6.4 °C 19.6 °F /  -6.9 °C 30.32in /  1026.6hPa Calm     38% 0.00in /  0mm 0.0 W/m2
03:16 43.7 °F /  6.5 °C 20.3 °F /  -6.5 °C 30.32in /  1026.6hPa Calm     39% 0.00in /  0mm 0.0 W/m2
03:22 43.9 °F /  6.6 °C 20.5 °F /  -6.4 °C 30.32in /  1026.6hPa Calm     39% 0.00in /  0mm 0.0 W/m2
03:28 44.1 °F /  6.7 °C 20.1 °F /  -6.6 °C 30.32in /  1026.6hPa Calm     38% 0.00in /  0mm 0.0 W/m2
03:30 44.1 °F /  6.7 °C 20.1 °F /  -6.6 °C 30.32in /  1026.6hPa Calm     38% 0.00in /  0mm 0.0 W/m2
03:36 44.2 °F /  6.8 °C 20.3 °F /  -6.5 °C 30.32in /  1026.6hPa Calm     38% 0.00in /  0mm 0.0 W/m2
03:42 44.4 °F /  6.9 °C 20.5 °F /  -6.4 °C 30.32in /  1026.6hPa Calm     38% 0.00in /  0mm 0.0 W/m2
03:48 44.2 °F /  6.8 °C 20.3 °F /  -6.5 °C 30.32in /  1026.6hPa Calm     38% 0.00in /  0mm 0.0 W/m2
03:55 44.2 °F /  6.8 °C 19.6 °F /  -6.9 °C 30.32in /  1026.6hPa Calm     37% 0.00in /  0mm 0.0 W/m2
04:01 44.6 °F /  7 °C 20.5 °F /  -6.4 °C 30.32in /  1026.6hPa Calm     38% 0.00in /  0mm 0.0 W/m2
04:07 44.8 °F /  7.1 °C 20.1 °F /  -6.6 °C 30.33in /  1027hPa Calm   2.0mph /  3.2km/h 37% 0.00in /  0mm 0.0 W/m2
04:13 45.0 °F /  7.2 °C 19.6 °F /  -6.9 °C 30.33in /  1027hPa Calm     36% 0.00in /  0mm 0.0 W/m2
04:19 44.8 °F /  7.1 °C 19.4 °F /  -7 °C 30.33in /  1027hPa Calm   2.0mph /  3.2km/h 36% 0.00in /  0mm 0.0 W/m2
04:31 45.3 °F /  7.4 °C 19.9 °F /  -6.7 °C 30.33in /  1027hPa Calm     36% 0.00in /  0mm 0.0 W/m2
04:38 45.7 °F /  7.6 °C 19.6 °F /  -6.9 °C 30.33in /  1027hPa Calm   1.0mph /  1.6km/h 35% 0.00in /  0mm 0.0 W/m2
04:44 46.0 °F /  7.8 °C 19.2 °F /  -7.1 °C 30.33in /  1027hPa Calm     34% 0.00in /  0mm 0.0 W/m2
04:50 45.9 °F /  7.7 °C 18.3 °F /  -7.6 °C 30.34in /  1027.3hPa Calm     33% 0.00in /  0mm 0.0 W/m2
04:56 45.0 °F /  7.2 °C 18.9 °F /  -7.3 °C 30.34in /  1027.3hPa Calm     35% 0.00in /  0mm 0.0 W/m2
05:02 44.8 °F /  7.1 °C 19.4 °F /  -7 °C 30.34in /  1027.3hPa East 0.9mph /  1.4km/h 5.0mph /  8km/h 36% 0.00in /  0mm 0.0 W/m2
05:08 45.1 °F /  7.3 °C 19.8 °F /  -6.8 °C 30.34in /  1027.3hPa East 0.9mph /  1.4km/h 3.0mph /  4.8km/h 36% 0.00in /  0mm 0.0 W/m2
05:14 45.3 °F /  7.4 °C 18.7 °F /  -7.4 °C 30.35in /  1027.7hPa Calm   2.0mph /  3.2km/h 34% 0.00in /  0mm 0.0 W/m2
05:21 45.9 °F /  7.7 °C 18.3 °F /  -7.6 °C 30.35in /  1027.7hPa Calm     33% 0.00in /  0mm 0.0 W/m2
05:27 46.0 °F /  7.8 °C 18.5 °F /  -7.5 °C 30.35in /  1027.7hPa Calm   1.0mph /  1.6km/h 33% 0.00in /  0mm 0.0 W/m2
05:33 46.2 °F /  7.9 °C 18.7 °F /  -7.4 °C 30.35in /  1027.7hPa Calm     33% 0.00in /  0mm 0.0 W/m2
05:39 46.0 °F /  7.8 °C 18.5 °F /  -7.5 °C 30.36in /  1028hPa Calm   2.0mph /  3.2km/h 33% 0.00in /  0mm 0.0 W/m2
05:45 46.0 °F /  7.8 °C 18.5 °F /  -7.5 °C 30.36in /  1028hPa Calm   4.0mph /  6.4km/h 33% 0.00in /  0mm 0.0 W/m2
05:51 46.2 °F /  7.9 °C 18.7 °F /  -7.4 °C 30.36in /  1028hPa Calm   1.0mph /  1.6km/h 33% 0.00in /  0mm 0.0 W/m2
05:57 46.2 °F /  7.9 °C 19.4 °F /  -7 °C 30.37in /  1028.3hPa Calm     34% 0.00in /  0mm 0.0 W/m2
06:03 46.2 °F /  7.9 °C 19.4 °F /  -7 °C 30.37in /  1028.3hPa Calm   1.0mph /  1.6km/h 34% 0.00in /  0mm 0.0 W/m2
06:10 46.0 °F /  7.8 °C 19.9 °F /  -6.7 °C 30.37in /  1028.3hPa Calm   1.0mph /  1.6km/h 35% 0.00in /  0mm 0.0 W/m2
06:16 46.2 °F /  7.9 °C 20.7 °F /  -6.3 °C 30.37in /  1028.3hPa Calm   1.0mph /  1.6km/h 36% 0.00in /  0mm 0.0 W/m2
06:22 46.6 °F /  8.1 °C 20.3 °F /  -6.5 °C 30.37in /  1028.3hPa Calm   2.0mph /  3.2km/h 35% 0.00in /  0mm 0.0 W/m2
06:28 46.8 °F /  8.2 °C 20.5 °F /  -6.4 °C 30.37in /  1028.3hPa Calm   2.0mph /  3.2km/h 35% 0.00in /  0mm 5.0 W/m2
06:34 46.9 °F /  8.3 °C 21.4 °F /  -5.9 °C 30.37in /  1028.3hPa Calm     36% 0.00in /  0mm 9.0 W/m2
06:40 47.1 °F /  8.4 °C 20.8 °F /  -6.2 °C 30.37in /  1028.3hPa Calm     35% 0.00in /  0mm 11.0 W/m2
06:47 47.1 °F /  8.4 °C 21.6 °F /  -5.8 °C 30.38in /  1028.7hPa Calm   1.0mph /  1.6km/h 36% 0.00in /  0mm 14.0 W/m2
06:53 47.5 °F /  8.6 °C 21.2 °F /  -6 °C 30.38in /  1028.7hPa Calm     35% 0.00in /  0mm 16.0 W/m2
06:59 47.8 °F /  8.8 °C 21.6 °F /  -5.8 °C 30.38in /  1028.7hPa Calm   1.0mph /  1.6km/h 35% 0.00in /  0mm 18.0 W/m2
07:05 48.0 °F /  8.9 °C 22.3 °F /  -5.4 °C 30.38in /  1028.7hPa Calm     36% 0.00in /  0mm 19.0 W/m2
07:11 47.8 °F /  8.8 °C 22.1 °F /  -5.5 °C 30.39in /  1029hPa Calm     36% 0.00in /  0mm 21.0 W/m2
07:17 47.8 °F /  8.8 °C 22.8 °F /  -5.1 °C 30.39in /  1029hPa Calm     37% 0.00in /  0mm 23.0 W/m2
07:23 47.8 °F /  8.8 °C 24.1 °F /  -4.4 °C 30.39in /  1029hPa Calm     39% 0.00in /  0mm 25.0 W/m2
07:30 47.8 °F /  8.8 °C 24.1 °F /  -4.4 °C 30.39in /  1029hPa Calm     39% 0.00in /  0mm 26.0 W/m2
07:36 48.2 °F /  9 °C 24.4 °F /  -4.2 °C 30.39in /  1029hPa Calm     39% 0.00in /  0mm 28.0 W/m2
07:42 48.7 °F /  9.3 °C 24.3 °F /  -4.3 °C 30.39in /  1029hPa Calm     38% 0.00in /  0mm 30.0 W/m2
07:48 50.5 °F /  10.3 °C 24.6 °F /  -4.1 °C 30.39in /  1029hPa Calm   7.0mph /  11.3km/h 36% 0.00in /  0mm 30.0 W/m2
07:54 52.9 °F /  11.6 °C 25.3 °F /  -3.7 °C 30.39in /  1029hPa Calm   4.0mph /  6.4km/h 34% 0.00in /  0mm 32.0 W/m2
08:00 54.7 °F /  12.6 °C 24.6 °F /  -4.1 °C 30.39in /  1029hPa East 2.9mph /  4.7km/h 6.0mph /  9.7km/h 31% 0.00in /  0mm 33.0 W/m2
08:06 56.3 °F /  13.5 °C 24.4 °F /  -4.2 °C 30.39in /  1029hPa ENE 4.9mph /  7.9km/h 8.0mph /  12.9km/h 29% 0.00in /  0mm 33.0 W/m2
08:13 57.4 °F /  14.1 °C 24.6 °F /  -4.1 °C 30.39in /  1029hPa SE 0.9mph /  1.4km/h 8.0mph /  12.9km/h 28% 0.00in /  0mm 35.0 W/m2
08:19 58.5 °F /  14.7 °C 24.6 °F /  -4.1 °C 30.39in /  1029hPa NNE 4.0mph /  6.4km/h 6.0mph /  9.7km/h 27% 0.00in /  0mm 37.0 W/m2
08:25 59.4 °F /  15.2 °C 25.3 °F /  -3.7 °C 30.39in /  1029hPa Calm   4.0mph /  6.4km/h 27% 0.00in /  0mm 77.0 W/m2
08:31 60.8 °F /  16 °C 24.8 °F /  -4 °C 30.39in /  1029hPa ENE 0.9mph /  1.4km/h 5.0mph /  8km/h 25% 0.00in /  0mm 408.0 W/m2
08:37 62.2 °F /  16.8 °C 25.0 °F /  -3.9 °C 30.40in /  1029.3hPa ENE 0.9mph /  1.4km/h 3.0mph /  4.8km/h 24% 0.00in /  0mm 431.0 W/m2
08:43 63.5 °F /  17.5 °C 23.9 °F /  -4.5 °C 30.40in /  1029.3hPa ENE 2.0mph /  3.2km/h 5.0mph /  8km/h 22% 0.00in /  0mm 450.0 W/m2
08:50 64.6 °F /  18.1 °C 24.8 °F /  -4 °C 30.40in /  1029.3hPa NE 0.9mph /  1.4km/h 5.0mph /  8km/h 22% 0.00in /  0mm 468.0 W/m2
08:56 65.5 °F /  18.6 °C 24.4 °F /  -4.2 °C 30.40in /  1029.3hPa NE 4.0mph /  6.4km/h 8.0mph /  12.9km/h 21% 0.00in /  0mm 487.0 W/m2
09:02 66.2 °F /  19 °C 22.6 °F /  -5.2 °C 30.40in /  1029.3hPa NE 2.0mph /  3.2km/h 10.0mph /  16.1km/h 19% 0.00in /  0mm 506.0 W/m2
09:08 66.6 °F /  19.2 °C 23.0 °F /  -5 °C 30.40in /  1029.3hPa East 2.0mph /  3.2km/h 8.0mph /  12.9km/h 19% 0.00in /  0mm 522.0 W/m2
09:14 66.7 °F /  19.3 °C 23.2 °F /  -4.9 °C 30.40in /  1029.3hPa Calm   7.0mph /  11.3km/h 19% 0.00in /  0mm 541.0 W/m2
09:20 67.3 °F /  19.6 °C 22.3 °F /  -5.4 °C 30.41in /  1029.7hPa NNE 2.9mph /  4.7km/h 7.0mph /  11.3km/h 18% 0.00in /  0mm 557.0 W/m2
09:26 67.8 °F /  19.9 °C 24.1 °F /  -4.4 °C 30.40in /  1029.3hPa ENE 0.9mph /  1.4km/h 8.0mph /  12.9km/h 19% 0.00in /  0mm 573.0 W/m2
09:32 68.4 °F /  20.2 °C 24.4 °F /  -4.2 °C 30.40in /  1029.3hPa ESE 2.0mph /  3.2km/h 7.0mph /  11.3km/h 19% 0.00in /  0mm 589.0 W/m2
09:38 68.5 °F /  20.3 °C 24.6 °F /  -4.1 °C 30.40in /  1029.3hPa ESE 0.9mph /  1.4km/h 6.0mph /  9.7km/h 19% 0.00in /  0mm 601.0 W/m2
09:45 69.1 °F /  20.6 °C 25.2 °F /  -3.8 °C 30.40in /  1029.3hPa Calm   5.0mph /  8km/h 19% 0.00in /  0mm 617.0 W/m2
09:51 69.3 °F /  20.7 °C 23.9 °F /  -4.5 °C 30.40in /  1029.3hPa NNE 4.0mph /  6.4km/h 5.0mph /  8km/h 18% 0.00in /  0mm 631.0 W/m2
09:57 69.6 °F /  20.9 °C 25.5 °F /  -3.6 °C 30.40in /  1029.3hPa NE 0.9mph /  1.4km/h 6.0mph /  9.7km/h 19% 0.00in /  0mm 645.0 W/m2
10:03 70.2 °F /  21.2 °C 26.1 °F /  -3.3 °C 30.39in /  1029hPa Calm   3.0mph /  4.8km/h 19% 0.00in /  0mm 659.0 W/m2
10:05 70.3 °F /  21.3 °C 24.8 °F /  -4 °C 30.40in /  1029.3hPa East 2.0mph /  3.2km/h 7.0mph /  11.3km/h 18% 0.00in /  0mm 661.0 W/m2
10:11 70.9 °F /  21.6 °C 26.6 °F /  -3 °C 30.39in /  1029hPa Calm   7.0mph /  11.3km/h 19% 0.00in /  0mm 668.0 W/m2
10:16 71.1 °F /  21.7 °C 26.8 °F /  -2.9 °C 30.39in /  1029hPa NW 6.9mph /  11.1km/h 7.0mph /  11.3km/h 19% 0.00in /  0mm 680.0 W/m2
10:22 71.4 °F /  21.9 °C 27.0 °F /  -2.8 °C 30.39in /  1029hPa NNE 2.9mph /  4.7km/h 3.0mph /  4.8km/h 19% 0.00in /  0mm 691.0 W/m2
10:28 71.2 °F /  21.8 °C 28.0 °F /  -2.2 °C 30.39in /  1029hPa NNE 0.9mph /  1.4km/h 10.0mph /  16.1km/h 20% 0.00in /  0mm 701.0 W/m2
10:34 71.4 °F /  21.9 °C 28.2 °F /  -2.1 °C 30.38in /  1028.7hPa Calm   2.0mph /  3.2km/h 20% 0.00in /  0mm 710.0 W/m2
10:40 72.0 °F /  22.2 °C 27.5 °F /  -2.5 °C 30.38in /  1028.7hPa North 0.9mph /  1.4km/h 6.0mph /  9.7km/h 19% 0.00in /  0mm 719.0 W/m2
10:46 72.3 °F /  22.4 °C 27.7 °F /  -2.4 °C 30.38in /  1028.7hPa NW 0.9mph /  1.4km/h 4.0mph /  6.4km/h 19% 0.00in /  0mm 724.0 W/m2
10:50 72.9 °F /  22.7 °C 27.0 °F /  -2.8 °C 30.38in /  1028.7hPa West 0.9mph /  1.4km/h 3.0mph /  4.8km/h 18% 0.00in /  0mm 729.0 W/m2
10:56 73.0 °F /  22.8 °C 27.0 °F /  -2.8 °C 30.38in /  1028.7hPa Calm   3.0mph /  4.8km/h 18% 0.00in /  0mm 738.0 W/m2
11:02 73.0 °F /  22.8 °C 27.0 °F /  -2.8 °C 30.37in /  1028.3hPa Calm   7.0mph /  11.3km/h 18% 0.00in /  0mm 742.0 W/m2
11:08 73.2 °F /  22.9 °C 25.7 °F /  -3.5 °C 30.37in /  1028.3hPa Calm   4.0mph /  6.4km/h 17% 0.00in /  0mm 751.0 W/m2
11:15 73.6 °F /  23.1 °C 27.5 °F /  -2.5 °C 30.37in /  1028.3hPa Calm   3.0mph /  4.8km/h 18% 0.00in /  0mm 754.0 W/m2
11:21 73.9 °F /  23.3 °C 26.4 °F /  -3.1 °C 30.36in /  1028hPa NNW 4.9mph /  7.9km/h 5.0mph /  8km/h 17% 0.00in /  0mm 754.0 W/m2
11:27 74.1 °F /  23.4 °C 26.6 °F /  -3 °C 30.36in /  1028hPa WNW 2.0mph /  3.2km/h 5.0mph /  8km/h 17% 0.00in /  0mm 761.0 W/m2
11:33 74.5 °F /  23.6 °C 26.8 °F /  -2.9 °C 30.36in /  1028hPa NNW 0.9mph /  1.4km/h 7.0mph /  11.3km/h 17% 0.00in /  0mm 759.0 W/m2
11:39 74.5 °F /  23.6 °C 26.8 °F /  -2.9 °C 30.35in /  1027.7hPa WSW 2.9mph /  4.7km/h 4.0mph /  6.4km/h 17% 0.00in /  0mm 763.0 W/m2
11:45 74.7 °F /  23.7 °C 25.5 °F /  -3.6 °C 30.35in /  1027.7hPa NW 0.9mph /  1.4km/h 4.0mph /  6.4km/h 16% 0.00in /  0mm 765.0 W/m2
11:51 74.5 °F /  23.6 °C 23.7 °F /  -4.6 °C 30.34in /  1027.3hPa ESE 2.0mph /  3.2km/h 4.0mph /  6.4km/h 15% 0.00in /  0mm 770.0 W/m2
11:57 74.7 °F /  23.7 °C 25.5 °F /  -3.6 °C 30.34in /  1027.3hPa North 8.9mph /  14.3km/h 9.0mph /  14.5km/h 16% 0.00in /  0mm 761.0 W/m2
12:03 74.5 °F /  23.6 °C 23.7 °F /  -4.6 °C 30.34in /  1027.3hPa Calm   3.0mph /  4.8km/h 15% 0.00in /  0mm 759.0 W/m2
12:10 74.7 °F /  23.7 °C 25.5 °F /  -3.6 °C 30.33in /  1027hPa West 0.9mph /  1.4km/h 7.0mph /  11.3km/h 16% 0.00in /  0mm 768.0 W/m2
12:16 74.7 °F /  23.7 °C 23.9 °F /  -4.5 °C 30.33in /  1027hPa Calm   6.0mph /  9.7km/h 15% 0.00in /  0mm 761.0 W/m2
12:22 74.8 °F /  23.8 °C 24.1 °F /  -4.4 °C 30.33in /  1027hPa Calm   5.0mph /  8km/h 15% 0.00in /  0mm 749.0 W/m2
12:28 74.5 °F /  23.6 °C 22.1 °F /  -5.5 °C 30.33in /  1027hPa Calm   4.0mph /  6.4km/h 14% 0.00in /  0mm 754.0 W/m2
12:34 74.1 °F /  23.4 °C 25.0 °F /  -3.9 °C 30.33in /  1027hPa Calm   3.0mph /  4.8km/h 16% 0.00in /  0mm 745.0 W/m2
12:40 74.7 °F /  23.7 °C 23.9 °F /  -4.5 °C 30.32in /  1026.6hPa West 4.0mph /  6.4km/h 8.0mph /  12.9km/h 15% 0.00in /  0mm 744.0 W/m2
12:46 75.0 °F /  23.9 °C 24.3 °F /  -4.3 °C 30.32in /  1026.6hPa West 0.9mph /  1.4km/h 3.0mph /  4.8km/h 15% 0.00in /  0mm 742.0 W/m2
12:52 75.0 °F /  23.9 °C 22.6 °F /  -5.2 °C 30.32in /  1026.6hPa SW 0.9mph /  1.4km/h 2.0mph /  3.2km/h 14% 0.00in /  0mm 724.0 W/m2
12:58 74.8 °F /  23.8 °C 22.5 °F /  -5.3 °C 30.31in /  1026.3hPa Calm   2.0mph /  3.2km/h 14% 0.00in /  0mm 719.0 W/m2
13:04 75.0 °F /  23.9 °C 22.6 °F /  -5.2 °C 30.31in /  1026.3hPa NE 8.1mph /  13km/h 9.0mph /  14.5km/h 14% 0.00in /  0mm 715.0 W/m2
13:10 75.0 °F /  23.9 °C 22.6 °F /  -5.2 °C 30.31in /  1026.3hPa NW 6.9mph /  11.1km/h 7.0mph /  11.3km/h 14% 0.00in /  0mm 715.0 W/m2
13:16 75.4 °F /  24.1 °C 22.8 °F /  -5.1 °C 30.31in /  1026.3hPa North 2.9mph /  4.7km/h 5.0mph /  8km/h 14% 0.00in /  0mm 700.0 W/m2
13:22 75.6 °F /  24.2 °C 23.0 °F /  -5 °C 30.31in /  1026.3hPa Calm   2.0mph /  3.2km/h 14% 0.00in /  0mm 684.0 W/m2
13:28 75.6 °F /  24.2 °C 21.2 °F /  -6 °C 30.30in /  1026hPa West 2.0mph /  3.2km/h 3.0mph /  4.8km/h 13% 0.00in /  0mm 675.0 W/m2
13:41 75.0 °F /  23.9 °C 22.6 °F /  -5.2 °C 30.30in /  1026hPa Calm   8.0mph /  12.9km/h 14% 0.00in /  0mm 656.0 W/m2
13:47 75.6 °F /  24.2 °C 21.2 °F /  -6 °C 30.30in /  1026hPa WNW 2.0mph /  3.2km/h 9.0mph /  14.5km/h 13% 0.00in /  0mm 645.0 W/m2
13:53 75.6 °F /  24.2 °C 21.2 °F /  -6 °C 30.30in /  1026hPa North 2.9mph /  4.7km/h 6.0mph /  9.7km/h 13% 0.00in /  0mm 633.0 W/m2
13:59 75.6 °F /  24.2 °C 23.0 °F /  -5 °C 30.29in /  1025.6hPa WNW 0.9mph /  1.4km/h 5.0mph /  8km/h 14% 0.00in /  0mm 621.0 W/m2
14:05 75.4 °F /  24.1 °C 21.2 °F /  -6 °C 30.29in /  1025.6hPa West 2.0mph /  3.2km/h 3.0mph /  4.8km/h 13% 0.00in /  0mm 606.0 W/m2
14:12 75.4 °F /  24.1 °C 21.2 °F /  -6 °C 30.29in /  1025.6hPa Calm   5.0mph /  8km/h 13% 0.00in /  0mm 591.0 W/m2
14:18 75.2 °F /  24 °C 21.0 °F /  -6.1 °C 30.29in /  1025.6hPa Calm   5.0mph /  8km/h 13% 0.00in /  0mm 577.0 W/m2
14:24 75.2 °F /  24 °C 21.0 °F /  -6.1 °C 30.28in /  1025.3hPa SW 4.0mph /  6.4km/h 5.0mph /  8km/h 13% 0.00in /  0mm 561.0 W/m2
14:30 74.7 °F /  23.7 °C 20.5 °F /  -6.4 °C 30.28in /  1025.3hPa Calm   7.0mph /  11.3km/h 13% 0.00in /  0mm 541.0 W/m2
14:36 74.7 °F /  23.7 °C 20.5 °F /  -6.4 °C 30.28in /  1025.3hPa West 0.9mph /  1.4km/h 3.0mph /  4.8km/h 13% 0.00in /  0mm 529.0 W/m2
14:42 74.7 °F /  23.7 °C 20.5 °F /  -6.4 °C 30.28in /  1025.3hPa WSW 2.9mph /  4.7km/h 3.0mph /  4.8km/h 13% 0.00in /  0mm 513.0 W/m2
14:48 74.8 °F /  23.8 °C 20.7 °F /  -6.3 °C 30.28in /  1025.3hPa SW 4.0mph /  6.4km/h 7.0mph /  11.3km/h 13% 0.00in /  0mm 487.0 W/m2
14:54 75.0 °F /  23.9 °C 20.8 °F /  -6.2 °C 30.28in /  1025.3hPa Calm   5.0mph /  8km/h 13% 0.00in /  0mm 473.0 W/m2
15:00 75.0 °F /  23.9 °C 20.8 °F /  -6.2 °C 30.28in /  1025.3hPa Calm   1.0mph /  1.6km/h 13% 0.00in /  0mm 457.0 W/m2
15:06 75.6 °F /  24.2 °C 19.4 °F /  -7 °C 30.28in /  1025.3hPa Calm   1.0mph /  1.6km/h 12% 0.00in /  0mm 439.0 W/m2
15:12 75.6 °F /  24.2 °C 19.4 °F /  -7 °C 30.28in /  1025.3hPa WSW 2.0mph /  3.2km/h 3.0mph /  4.8km/h 12% 0.00in /  0mm 424.0 W/m2
15:18 75.6 °F /  24.2 °C 19.4 °F /  -7 °C 30.28in /  1025.3hPa NW 2.0mph /  3.2km/h 4.0mph /  6.4km/h 12% 0.00in /  0mm 404.0 W/m2
15:24 75.7 °F /  24.3 °C 17.4 °F /  -8.1 °C 30.28in /  1025.3hPa NNW 2.0mph /  3.2km/h 2.0mph /  3.2km/h 11% 0.00in /  0mm 383.0 W/m2
15:30 75.9 °F /  24.4 °C 17.6 °F /  -8 °C 30.28in /  1025.3hPa Calm   1.0mph /  1.6km/h 11% 0.00in /  0mm 366.0 W/m2
15:36 75.4 °F /  24.1 °C 17.2 °F /  -8.2 °C 30.28in /  1025.3hPa Calm     11% 0.00in /  0mm 345.0 W/m2
15:48 74.3 °F /  23.5 °C 18.3 °F /  -7.6 °C 30.28in /  1025.3hPa NNW 0.9mph /  1.4km/h 4.0mph /  6.4km/h 12% 0.00in /  0mm 302.0 W/m2
15:54 74.1 °F /  23.4 °C 20.1 °F /  -6.6 °C 30.28in /  1025.3hPa North 2.0mph /  3.2km/h 5.0mph /  8km/h 13% 0.00in /  0mm 54.0 W/m2
16:00 74.1 °F /  23.4 °C 20.1 °F /  -6.6 °C 30.28in /  1025.3hPa Calm   3.0mph /  4.8km/h 13% 0.00in /  0mm 47.0 W/m2
16:06 73.9 °F /  23.3 °C 19.9 °F /  -6.7 °C 30.28in /  1025.3hPa Calm   3.0mph /  4.8km/h 13% 0.00in /  0mm 46.0 W/m2
16:13 73.8 °F /  23.2 °C 19.8 °F /  -6.8 °C 30.28in /  1025.3hPa Calm   2.0mph /  3.2km/h 13% 0.00in /  0mm 42.0 W/m2
16:19 73.4 °F /  23 °C 19.6 °F /  -6.9 °C 30.28in /  1025.3hPa WNW 0.9mph /  1.4km/h 3.0mph /  4.8km/h 13% 0.00in /  0mm 39.0 W/m2
16:24 73.0 °F /  22.8 °C 19.2 °F /  -7.1 °C 30.28in /  1025.3hPa Calm   3.0mph /  4.8km/h 13% 0.00in /  0mm 65.0 W/m2
16:30 72.9 °F /  22.7 °C 19.2 °F /  -7.1 °C 30.28in /  1025.3hPa West 0.9mph /  1.4km/h 3.0mph /  4.8km/h 13% 0.00in /  0mm 35.0 W/m2
16:36 72.3 °F /  22.4 °C 18.7 °F /  -7.4 °C 30.28in /  1025.3hPa North 2.0mph /  3.2km/h 5.0mph /  8km/h 13% 0.00in /  0mm 30.0 W/m2
16:40 72.1 °F /  22.3 °C 18.5 °F /  -7.5 °C 30.28in /  1025.3hPa NE 2.0mph /  3.2km/h 3.0mph /  4.8km/h 13% 0.00in /  0mm 39.0 W/m2
16:49 72.0 °F /  22.2 °C 18.5 °F /  -7.5 °C 30.28in /  1025.3hPa Calm     13% 0.00in /  0mm 49.0 W/m2
16:54 71.8 °F /  22.1 °C 18.3 °F /  -7.6 °C 30.29in /  1025.6hPa Calm   1.0mph /  1.6km/h 13% 0.00in /  0mm 25.0 W/m2
17:00 71.4 °F /  21.9 °C 19.8 °F /  -6.8 °C 30.29in /  1025.6hPa Calm     14% 0.00in /  0mm 26.0 W/m2
17:09 70.9 °F /  21.6 °C 17.6 °F /  -8 °C 30.29in /  1025.6hPa Calm   1.0mph /  1.6km/h 13% 0.00in /  0mm 18.0 W/m2
17:14 70.5 °F /  21.4 °C 19.0 °F /  -7.2 °C 30.29in /  1025.6hPa Calm     14% 0.00in /  0mm 14.0 W/m2
17:20 70.2 °F /  21.2 °C 18.7 °F /  -7.4 °C 30.29in /  1025.6hPa Calm     14% 0.00in /  0mm 11.0 W/m2
17:26 69.6 °F /  20.9 °C 19.9 °F /  -6.7 °C 30.29in /  1025.6hPa Calm     15% 0.00in /  0mm 7.0 W/m2
17:32 69.1 °F /  20.6 °C 21.0 °F /  -6.1 °C 30.30in /  1026hPa Calm     16% 0.00in /  0mm 0.0 W/m2
17:38 68.2 °F /  20.1 °C 20.3 °F /  -6.5 °C 30.30in /  1026hPa Calm     16% 0.00in /  0mm 0.0 W/m2
17:44 67.5 °F /  19.7 °C 21.2 °F /  -6 °C 30.30in /  1026hPa Calm     17% 0.00in /  0mm 0.0 W/m2
17:56 65.8 °F /  18.8 °C 19.8 °F /  -6.8 °C 30.30in /  1026hPa Calm     17% 0.00in /  0mm 0.0 W/m2
18:02 65.1 °F /  18.4 °C 20.5 °F /  -6.4 °C 30.31in /  1026.3hPa Calm     18% 0.00in /  0mm 0.0 W/m2
18:06 64.6 °F /  18.1 °C 20.1 °F /  -6.6 °C 30.30in /  1026hPa Calm     18% 0.00in /  0mm 0.0 W/m2
18:12 63.9 °F /  17.7 °C 20.8 °F /  -6.2 °C 30.31in /  1026.3hPa Calm     19% 0.00in /  0mm 0.0 W/m2
18:18 63.0 °F /  17.2 °C 20.1 °F /  -6.6 °C 30.31in /  1026.3hPa Calm     19% 0.00in /  0mm 0.0 W/m2
18:24 62.2 °F /  16.8 °C 20.7 °F /  -6.3 °C 30.31in /  1026.3hPa Calm     20% 0.00in /  0mm 0.0 W/m2
18:30 61.5 °F /  16.4 °C 20.1 °F /  -6.6 °C 30.31in /  1026.3hPa Calm     20% 0.00in /  0mm 0.0 W/m2
18:42 60.3 °F /  15.7 °C 20.1 °F /  -6.6 °C 30.32in /  1026.6hPa Calm     21% 0.00in /  0mm 0.0 W/m2
18:48 59.5 °F /  15.3 °C 19.6 °F /  -6.9 °C 30.32in /  1026.6hPa Calm   1.0mph /  1.6km/h 21% 0.00in /  0mm 0.0 W/m2
18:54 58.8 °F /  14.9 °C 19.0 °F /  -7.2 °C 30.32in /  1026.6hPa Calm     21% 0.00in /  0mm 0.0 W/m2
19:00 58.5 °F /  14.7 °C 18.7 °F /  -7.4 °C 30.32in /  1026.6hPa Calm     21% 0.00in /  0mm 0.0 W/m2
19:06 57.7 °F /  14.3 °C 19.2 °F /  -7.1 °C 30.32in /  1026.6hPa Calm     22% 0.00in /  0mm 0.0 W/m2
19:12 57.4 °F /  14.1 °C 19.9 °F /  -6.7 °C 30.33in /  1027hPa Calm     23% 0.00in /  0mm 0.0 W/m2
19:18 56.8 °F /  13.8 °C 19.4 °F /  -7 °C 30.33in /  1027hPa Calm     23% 0.00in /  0mm 0.0 W/m2
19:24 56.5 °F /  13.6 °C 20.1 °F /  -6.6 °C 30.33in /  1027hPa Calm     24% 0.00in /  0mm 0.0 W/m2
19:30 55.9 °F /  13.3 °C 19.6 °F /  -6.9 °C 30.33in /  1027hPa Calm     24% 0.00in /  0mm 0.0 W/m2
19:36 55.8 °F /  13.2 °C 19.6 °F /  -6.9 °C 30.33in /  1027hPa Calm   1.0mph /  1.6km/h 24% 0.00in /  0mm 0.0 W/m2
19:42 55.6 °F /  13.1 °C 18.3 °F /  -7.6 °C 30.33in /  1027hPa Calm     23% 0.00in /  0mm 0.0 W/m2
19:48 55.6 °F /  13.1 °C 19.4 °F /  -7 °C 30.33in /  1027hPa Calm     24% 0.00in /  0mm 0.0 W/m2
19:54 55.6 °F /  13.1 °C 18.3 °F /  -7.6 °C 30.33in /  1027hPa Calm   2.0mph /  3.2km/h 23% 0.00in /  0mm 0.0 W/m2
20:00 55.6 °F /  13.1 °C 18.3 °F /  -7.6 °C 30.34in /  1027.3hPa Calm     23% 0.00in /  0mm 0.0 W/m2
20:06 55.6 °F /  13.1 °C 18.3 °F /  -7.6 °C 30.34in /  1027.3hPa Calm     23% 0.00in /  0mm 0.0 W/m2
20:12 55.6 °F /  13.1 °C 18.3 °F /  -7.6 °C 30.34in /  1027.3hPa Calm   2.0mph /  3.2km/h 23% 0.00in /  0mm 0.0 W/m2
20:18 55.6 °F /  13.1 °C 18.3 °F /  -7.6 °C 30.34in /  1027.3hPa Calm   1.0mph /  1.6km/h 23% 0.00in /  0mm 0.0 W/m2
20:24 55.6 °F /  13.1 °C 18.3 °F /  -7.6 °C 30.34in /  1027.3hPa Calm   1.0mph /  1.6km/h 23% 0.00in /  0mm 0.0 W/m2
20:30 55.6 °F /  13.1 °C 18.3 °F /  -7.6 °C 30.35in /  1027.7hPa Calm     23% 0.00in /  0mm 0.0 W/m2
20:36 54.9 °F /  12.7 °C 18.7 °F /  -7.4 °C 30.35in /  1027.7hPa SE 0.9mph /  1.4km/h 1.0mph /  1.6km/h 24% 0.00in /  0mm 0.0 W/m2
20:42 54.3 °F /  12.4 °C 18.3 °F /  -7.6 °C 30.35in /  1027.7hPa Calm     24% 0.00in /  0mm 0.0 W/m2
20:48 54.1 °F /  12.3 °C 18.1 °F /  -7.7 °C 30.35in /  1027.7hPa Calm     24% 0.00in /  0mm 0.0 W/m2
21:00 53.8 °F /  12.1 °C 17.8 °F /  -7.9 °C 30.35in /  1027.7hPa Calm     24% 0.00in /  0mm 0.0 W/m2
21:06 53.2 °F /  11.8 °C 18.3 °F /  -7.6 °C 30.36in /  1028hPa Calm     25% 0.00in /  0mm 0.0 W/m2
21:12 53.1 °F /  11.7 °C 18.1 °F /  -7.7 °C 30.36in /  1028hPa Calm     25% 0.00in /  0mm 0.0 W/m2
21:18 52.9 °F /  11.6 °C 18.0 °F /  -7.8 °C 30.36in /  1028hPa Calm     25% 0.00in /  0mm 0.0 W/m2
21:24 53.1 °F /  11.7 °C 18.1 °F /  -7.7 °C 30.36in /  1028hPa ESE 0.9mph /  1.4km/h 1.0mph /  1.6km/h 25% 0.00in /  0mm 0.0 W/m2
21:30 52.9 °F /  11.6 °C 18.0 °F /  -7.8 °C 30.36in /  1028hPa Calm   2.0mph /  3.2km/h 25% 0.00in /  0mm 0.0 W/m2
21:36 52.9 °F /  11.6 °C 18.0 °F /  -7.8 °C 30.36in /  1028hPa Calm   3.0mph /  4.8km/h 25% 0.00in /  0mm 0.0 W/m2
21:48 52.3 °F /  11.3 °C 17.6 °F /  -8 °C 30.36in /  1028hPa Calm     25% 0.00in /  0mm 0.0 W/m2
21:54 52.5 °F /  11.4 °C 17.8 °F /  -7.9 °C 30.36in /  1028hPa Calm     25% 0.00in /  0mm 0.0 W/m2
22:01 52.5 °F /  11.4 °C 17.8 °F /  -7.9 °C 30.36in /  1028hPa Calm     25% 0.00in /  0mm 0.0 W/m2
22:06 52.5 °F /  11.4 °C 17.8 °F /  -7.9 °C 30.36in /  1028hPa Calm   1.0mph /  1.6km/h 25% 0.00in /  0mm 0.0 W/m2
22:12 52.3 °F /  11.3 °C 17.6 °F /  -8 °C 30.36in /  1028hPa Calm   1.0mph /  1.6km/h 25% 0.00in /  0mm 0.0 W/m2
22:19 52.3 °F /  11.3 °C 18.5 °F /  -7.5 °C 30.36in /  1028hPa Calm   1.0mph /  1.6km/h 26% 0.00in /  0mm 0.0 W/m2
22:25 52.2 °F /  11.2 °C 17.4 °F /  -8.1 °C 30.36in /  1028hPa Calm   1.0mph /  1.6km/h 25% 0.00in /  0mm 0.0 W/m2
22:31 52.2 °F /  11.2 °C 18.3 °F /  -7.6 °C 30.36in /  1028hPa Calm     26% 0.00in /  0mm 0.0 W/m2
22:37 52.2 °F /  11.2 °C 17.4 °F /  -8.1 °C 30.36in /  1028hPa Calm     25% 0.00in /  0mm 0.0 W/m2
22:43 52.2 °F /  11.2 °C 18.3 °F /  -7.6 °C 30.36in /  1028hPa Calm     26% 0.00in /  0mm 0.0 W/m2
22:49 52.0 °F /  11.1 °C 18.1 °F /  -7.7 °C 30.36in /  1028hPa Calm     26% 0.00in /  0mm 0.0 W/m2
22:55 52.0 °F /  11.1 °C 18.1 °F /  -7.7 °C 30.36in /  1028hPa Calm     26% 0.00in /  0mm 0.0 W/m2
23:01 51.6 °F /  10.9 °C 17.8 °F /  -7.9 °C 30.36in /  1028hPa Calm     26% 0.00in /  0mm 0.0 W/m2
23:07 51.6 °F /  10.9 °C 17.8 °F /  -7.9 °C 30.36in /  1028hPa Calm     26% 0.00in /  0mm 0.0 W/m2
23:13 51.4 °F /  10.8 °C 17.6 °F /  -8 °C 30.36in /  1028hPa Calm     26% 0.00in /  0mm 0.0 W/m2
23:20 51.4 °F /  10.8 °C 17.6 °F /  -8 °C 30.36in /  1028hPa ENE 0.9mph /  1.4km/h 3.0mph /  4.8km/h 26% 0.00in /  0mm 0.0 W/m2
23:25 51.4 °F /  10.8 °C 18.5 °F /  -7.5 °C 30.36in /  1028hPa Calm     27% 0.00in /  0mm 0.0 W/m2
23:30 51.4 °F /  10.8 °C 18.5 °F /  -7.5 °C 30.36in /  1028hPa Calm     27% 0.00in /  0mm 0.0 W/m2
23:36 51.3 °F /  10.7 °C 18.3 °F /  -7.6 °C 30.35in /  1027.7hPa Calm     27% 0.00in /  0mm 0.0 W/m2
23:42 51.1 °F /  10.6 °C 18.3 °F /  -7.6 °C 30.36in /  1028hPa Calm     27% 0.00in /  0mm 0.0 W/m2
23:48 50.7 °F /  10.4 °C 18.0 °F /  -7.8 °C 30.35in /  1027.7hPa Calm   1.0mph /  1.6km/h 27% 0.00in /  0mm 0.0 W/m2
23:57 50.5 °F /  10.3 °C 18.7 °F /  -7.4 °C 30.36in /  1028hPa Calm     28% 0.00in /  0mm 0.0 W/m2
Olympia, Windhoek, Namibia
Compliments of Weather Underground - 3 mb